sensor_id;sensor_type;location;lat;lon;timestamp;P1;durP1;ratioP1;P2;durP2;ratioP2
6111;SDS011;3086;48.802;9.394;2023-07-24T00:00:56;10.07;;;7.10;;
6111;SDS011;3086;48.802;9.394;2023-07-24T00:04:17;8.07;;;6.93;;
6111;SDS011;3086;48.802;9.394;2023-07-24T00:07:39;10.80;;;7.83;;
6111;SDS011;3086;48.802;9.394;2023-07-24T00:11:02;9.47;;;7.17;;
6111;SDS011;3086;48.802;9.394;2023-07-24T00:14:25;8.57;;;6.93;;
6111;SDS011;3086;48.802;9.394;2023-07-24T00:17:47;9.37;;;7.20;;
6111;SDS011;3086;48.802;9.394;2023-07-24T00:21:08;8.50;;;7.17;;
6111;SDS011;3086;48.802;9.394;2023-07-24T00:24:31;9.50;;;7.47;;
6111;SDS011;3086;48.802;9.394;2023-07-24T00:27:54;9.00;;;7.37;;
6111;SDS011;3086;48.802;9.394;2023-07-24T00:31:15;10.50;;;7.40;;
6111;SDS011;3086;48.802;9.394;2023-07-24T00:34:36;11.00;;;7.00;;
6111;SDS011;3086;48.802;9.394;2023-07-24T00:37:58;8.10;;;7.17;;
6111;SDS011;3086;48.802;9.394;2023-07-24T00:41:19;10.47;;;7.30;;
6111;SDS011;3086;48.802;9.394;2023-07-24T00:44:42;9.70;;;7.57;;
6111;SDS011;3086;48.802;9.394;2023-07-24T00:48:04;9.93;;;7.33;;
6111;SDS011;3086;48.802;9.394;2023-07-24T00:51:26;9.27;;;7.20;;
6111;SDS011;3086;48.802;9.394;2023-07-24T00:54:48;8.13;;;7.17;;
6111;SDS011;3086;48.802;9.394;2023-07-24T00:58:10;9.57;;;6.90;;
6111;SDS011;3086;48.802;9.394;2023-07-24T01:01:33;9.30;;;7.27;;
6111;SDS011;3086;48.802;9.394;2023-07-24T01:04:55;8.43;;;6.63;;
6111;SDS011;3086;48.802;9.394;2023-07-24T01:08:16;8.30;;;6.63;;
6111;SDS011;3086;48.802;9.394;2023-07-24T01:11:39;9.00;;;6.83;;
6111;SDS011;3086;48.802;9.394;2023-07-24T01:15:03;9.50;;;7.17;;
6111;SDS011;3086;48.802;9.394;2023-07-24T01:18:31;7.93;;;6.93;;
6111;SDS011;3086;48.802;9.394;2023-07-24T01:21:58;7.93;;;6.43;;
6111;SDS011;3086;48.802;9.394;2023-07-24T01:25:27;10.20;;;7.07;;
6111;SDS011;3086;48.802;9.394;2023-07-24T01:28:52;7.50;;;6.63;;
6111;SDS011;3086;48.802;9.394;2023-07-24T01:32:14;8.47;;;6.83;;
6111;SDS011;3086;48.802;9.394;2023-07-24T01:35:35;8.37;;;6.87;;
6111;SDS011;3086;48.802;9.394;2023-07-24T01:38:57;8.53;;;6.73;;
6111;SDS011;3086;48.802;9.394;2023-07-24T01:42:19;7.70;;;6.10;;
6111;SDS011;3086;48.802;9.394;2023-07-24T01:45:42;9.37;;;6.40;;
6111;SDS011;3086;48.802;9.394;2023-07-24T01:49:03;7.83;;;7.03;;
6111;SDS011;3086;48.802;9.394;2023-07-24T01:52:25;7.33;;;6.53;;
6111;SDS011;3086;48.802;9.394;2023-07-24T01:55:47;8.23;;;7.17;;
6111;SDS011;3086;48.802;9.394;2023-07-24T01:59:08;7.67;;;5.93;;
6111;SDS011;3086;48.802;9.394;2023-07-24T02:02:31;8.33;;;6.63;;
6111;SDS011;3086;48.802;9.394;2023-07-24T02:05:52;7.10;;;5.73;;
6111;SDS011;3086;48.802;9.394;2023-07-24T02:09:14;8.80;;;7.07;;
6111;SDS011;3086;48.802;9.394;2023-07-24T02:12:35;9.20;;;7.10;;
6111;SDS011;3086;48.802;9.394;2023-07-24T02:15:57;9.10;;;6.70;;
6111;SDS011;3086;48.802;9.394;2023-07-24T02:19:20;9.40;;;6.70;;
6111;SDS011;3086;48.802;9.394;2023-07-24T02:22:41;10.43;;;7.27;;
6111;SDS011;3086;48.802;9.394;2023-07-24T02:26:03;8.63;;;6.60;;
6111;SDS011;3086;48.802;9.394;2023-07-24T02:29:24;7.90;;;6.97;;
6111;SDS011;3086;48.802;9.394;2023-07-24T02:32:45;7.63;;;6.73;;
6111;SDS011;3086;48.802;9.394;2023-07-24T02:36:08;8.87;;;6.83;;
6111;SDS011;3086;48.802;9.394;2023-07-24T02:39:30;10.23;;;6.87;;
6111;SDS011;3086;48.802;9.394;2023-07-24T02:42:51;8.43;;;6.87;;
6111;SDS011;3086;48.802;9.394;2023-07-24T02:46:13;9.57;;;7.13;;
6111;SDS011;3086;48.802;9.394;2023-07-24T02:49:34;8.03;;;6.40;;
6111;SDS011;3086;48.802;9.394;2023-07-24T02:52:57;7.47;;;6.47;;
6111;SDS011;3086;48.802;9.394;2023-07-24T02:56:18;9.73;;;6.73;;
6111;SDS011;3086;48.802;9.394;2023-07-24T02:59:40;8.97;;;7.03;;
6111;SDS011;3086;48.802;9.394;2023-07-24T03:03:02;9.90;;;7.60;;
6111;SDS011;3086;48.802;9.394;2023-07-24T03:06:23;9.07;;;7.17;;
6111;SDS011;3086;48.802;9.394;2023-07-24T03:09:47;8.43;;;7.03;;
6111;SDS011;3086;48.802;9.394;2023-07-24T03:13:09;7.60;;;6.40;;
6111;SDS011;3086;48.802;9.394;2023-07-24T03:16:30;10.13;;;7.60;;
6111;SDS011;3086;48.802;9.394;2023-07-24T03:19:53;9.23;;;6.57;;
6111;SDS011;3086;48.802;9.394;2023-07-24T03:23:15;7.03;;;6.17;;
6111;SDS011;3086;48.802;9.394;2023-07-24T03:26:38;8.30;;;7.00;;
6111;SDS011;3086;48.802;9.394;2023-07-24T03:29:59;9.10;;;7.37;;
6111;SDS011;3086;48.802;9.394;2023-07-24T03:33:21;8.10;;;7.10;;
6111;SDS011;3086;48.802;9.394;2023-07-24T03:36:42;7.73;;;6.53;;
6111;SDS011;3086;48.802;9.394;2023-07-24T03:40:04;8.30;;;6.70;;
6111;SDS011;3086;48.802;9.394;2023-07-24T03:43:28;8.33;;;6.77;;
6111;SDS011;3086;48.802;9.394;2023-07-24T03:46:50;8.03;;;6.40;;
6111;SDS011;3086;48.802;9.394;2023-07-24T03:50:11;10.13;;;7.13;;
6111;SDS011;3086;48.802;9.394;2023-07-24T03:53:33;8.97;;;7.00;;
6111;SDS011;3086;48.802;9.394;2023-07-24T03:56:54;9.20;;;7.30;;
6111;SDS011;3086;48.802;9.394;2023-07-24T04:00:17;8.83;;;7.33;;
6111;SDS011;3086;48.802;9.394;2023-07-24T04:03:39;8.00;;;6.80;;
6111;SDS011;3086;48.802;9.394;2023-07-24T04:07:01;9.83;;;6.93;;
6111;SDS011;3086;48.802;9.394;2023-07-24T04:10:22;8.17;;;6.43;;
6111;SDS011;3086;48.802;9.394;2023-07-24T04:13:44;8.27;;;7.00;;
6111;SDS011;3086;48.802;9.394;2023-07-24T04:17:07;12.07;;;6.67;;
6111;SDS011;3086;48.802;9.394;2023-07-24T04:20:28;12.67;;;6.93;;
6111;SDS011;3086;48.802;9.394;2023-07-24T04:23:50;9.17;;;7.30;;
6111;SDS011;3086;48.802;9.394;2023-07-24T04:27:11;8.60;;;6.63;;
6111;SDS011;3086;48.802;9.394;2023-07-24T04:30:33;9.47;;;6.87;;
6111;SDS011;3086;48.802;9.394;2023-07-24T04:33:55;10.63;;;7.60;;
6111;SDS011;3086;48.802;9.394;2023-07-24T04:37:17;9.33;;;6.60;;
6111;SDS011;3086;48.802;9.394;2023-07-24T04:40:38;7.30;;;6.33;;
6111;SDS011;3086;48.802;9.394;2023-07-24T04:44:00;10.33;;;7.10;;
6111;SDS011;3086;48.802;9.394;2023-07-24T04:47:21;8.43;;;7.10;;
6111;SDS011;3086;48.802;9.394;2023-07-24T04:50:44;8.13;;;6.90;;
6111;SDS011;3086;48.802;9.394;2023-07-24T04:54:06;8.43;;;6.93;;
6111;SDS011;3086;48.802;9.394;2023-07-24T04:57:27;10.10;;;7.23;;
6111;SDS011;3086;48.802;9.394;2023-07-24T05:00:49;9.70;;;6.97;;
6111;SDS011;3086;48.802;9.394;2023-07-24T05:04:10;9.30;;;7.57;;
6111;SDS011;3086;48.802;9.394;2023-07-24T05:07:33;9.93;;;7.97;;
6111;SDS011;3086;48.802;9.394;2023-07-24T05:10:55;9.10;;;7.03;;
6111;SDS011;3086;48.802;9.394;2023-07-24T05:14:16;9.33;;;6.77;;
6111;SDS011;3086;48.802;9.394;2023-07-24T05:17:38;9.23;;;7.13;;
6111;SDS011;3086;48.802;9.394;2023-07-24T05:20:59;8.70;;;7.13;;
6111;SDS011;3086;48.802;9.394;2023-07-24T05:24:22;8.43;;;6.73;;
6111;SDS011;3086;48.802;9.394;2023-07-24T05:27:44;9.97;;;7.27;;
6111;SDS011;3086;48.802;9.394;2023-07-24T05:31:05;8.77;;;6.53;;
6111;SDS011;3086;48.802;9.394;2023-07-24T05:34:28;9.50;;;6.90;;
6111;SDS011;3086;48.802;9.394;2023-07-24T05:37:49;8.00;;;6.37;;
6111;SDS011;3086;48.802;9.394;2023-07-24T05:41:12;8.37;;;7.20;;
6111;SDS011;3086;48.802;9.394;2023-07-24T05:44:33;10.43;;;7.70;;
6111;SDS011;3086;48.802;9.394;2023-07-24T05:47:57;10.40;;;8.40;;
6111;SDS011;3086;48.802;9.394;2023-07-24T05:51:19;11.43;;;7.83;;
6111;SDS011;3086;48.802;9.394;2023-07-24T05:54:41;9.27;;;7.30;;
6111;SDS011;3086;48.802;9.394;2023-07-24T05:58:04;9.83;;;7.50;;
6111;SDS011;3086;48.802;9.394;2023-07-24T06:01:25;10.23;;;7.83;;
6111;SDS011;3086;48.802;9.394;2023-07-24T06:04:47;9.60;;;7.23;;
6111;SDS011;3086;48.802;9.394;2023-07-24T06:08:08;11.03;;;7.37;;
6111;SDS011;3086;48.802;9.394;2023-07-24T06:11:31;9.77;;;7.60;;
6111;SDS011;3086;48.802;9.394;2023-07-24T06:14:53;9.77;;;7.17;;
6111;SDS011;3086;48.802;9.394;2023-07-24T06:18:15;11.63;;;7.43;;
6111;SDS011;3086;48.802;9.394;2023-07-24T06:21:37;11.33;;;7.93;;
6111;SDS011;3086;48.802;9.394;2023-07-24T06:24:58;10.47;;;6.90;;
6111;SDS011;3086;48.802;9.394;2023-07-24T06:28:20;9.63;;;7.93;;
6111;SDS011;3086;48.802;9.394;2023-07-24T06:31:43;11.87;;;7.73;;
6111;SDS011;3086;48.802;9.394;2023-07-24T06:35:05;11.33;;;8.33;;
6111;SDS011;3086;48.802;9.394;2023-07-24T06:38:27;11.10;;;7.70;;
6111;SDS011;3086;48.802;9.394;2023-07-24T06:41:48;10.47;;;7.90;;
6111;SDS011;3086;48.802;9.394;2023-07-24T06:45:09;10.37;;;7.97;;
6111;SDS011;3086;48.802;9.394;2023-07-24T06:48:32;9.40;;;8.20;;
6111;SDS011;3086;48.802;9.394;2023-07-24T06:51:54;9.13;;;7.77;;
6111;SDS011;3086;48.802;9.394;2023-07-24T06:55:15;8.93;;;7.37;;
6111;SDS011;3086;48.802;9.394;2023-07-24T06:58:37;9.17;;;7.53;;
6111;SDS011;3086;48.802;9.394;2023-07-24T07:01:59;10.03;;;7.67;;
6111;SDS011;3086;48.802;9.394;2023-07-24T07:05:21;8.60;;;7.07;;
6111;SDS011;3086;48.802;9.394;2023-07-24T07:08:43;12.77;;;7.87;;
6111;SDS011;3086;48.802;9.394;2023-07-24T07:12:05;11.30;;;7.60;;
6111;SDS011;3086;48.802;9.394;2023-07-24T07:15:27;8.53;;;7.23;;
6111;SDS011;3086;48.802;9.394;2023-07-24T07:18:48;9.23;;;7.70;;
6111;SDS011;3086;48.802;9.394;2023-07-24T07:22:11;9.67;;;8.00;;
6111;SDS011;3086;48.802;9.394;2023-07-24T07:25:33;12.27;;;8.33;;
6111;SDS011;3086;48.802;9.394;2023-07-24T07:28:54;9.17;;;7.37;;
6111;SDS011;3086;48.802;9.394;2023-07-24T07:32:17;9.53;;;7.90;;
6111;SDS011;3086;48.802;9.394;2023-07-24T07:35:38;9.67;;;7.50;;
6111;SDS011;3086;48.802;9.394;2023-07-24T07:39:01;9.37;;;7.23;;
6111;SDS011;3086;48.802;9.394;2023-07-24T07:42:23;11.30;;;7.87;;
6111;SDS011;3086;48.802;9.394;2023-07-24T07:45:44;11.93;;;7.23;;
6111;SDS011;3086;48.802;9.394;2023-07-24T07:49:06;11.17;;;7.43;;
6111;SDS011;3086;48.802;9.394;2023-07-24T07:52:27;9.37;;;8.10;;
6111;SDS011;3086;48.802;9.394;2023-07-24T07:55:56;9.43;;;7.60;;
6111;SDS011;3086;48.802;9.394;2023-07-24T07:59:18;9.60;;;7.30;;
6111;SDS011;3086;48.802;9.394;2023-07-24T08:02:39;9.63;;;7.13;;
6111;SDS011;3086;48.802;9.394;2023-07-24T08:06:01;11.77;;;7.83;;
6111;SDS011;3086;48.802;9.394;2023-07-24T08:09:22;10.20;;;7.83;;
6111;SDS011;3086;48.802;9.394;2023-07-24T08:12:45;9.93;;;7.47;;
6111;SDS011;3086;48.802;9.394;2023-07-24T08:16:12;10.23;;;7.80;;
6111;SDS011;3086;48.802;9.394;2023-07-24T08:19:38;10.63;;;7.47;;
6111;SDS011;3086;48.802;9.394;2023-07-24T08:22:59;13.70;;;7.80;;
6111;SDS011;3086;48.802;9.394;2023-07-24T08:26:21;9.13;;;7.17;;
6111;SDS011;3086;48.802;9.394;2023-07-24T08:29:46;10.03;;;8.00;;
6111;SDS011;3086;48.802;9.394;2023-07-24T08:33:07;12.50;;;7.50;;
6111;SDS011;3086;48.802;9.394;2023-07-24T08:36:29;9.33;;;8.30;;
6111;SDS011;3086;48.802;9.394;2023-07-24T08:39:50;10.57;;;8.10;;
6111;SDS011;3086;48.802;9.394;2023-07-24T08:43:12;11.37;;;7.13;;
6111;SDS011;3086;48.802;9.394;2023-07-24T08:46:36;11.77;;;7.40;;
6111;SDS011;3086;48.802;9.394;2023-07-24T08:49:58;13.47;;;8.37;;
6111;SDS011;3086;48.802;9.394;2023-07-24T08:53:20;9.37;;;7.40;;
6111;SDS011;3086;48.802;9.394;2023-07-24T08:56:42;9.63;;;7.70;;
6111;SDS011;3086;48.802;9.394;2023-07-24T09:00:07;16.17;;;7.77;;
6111;SDS011;3086;48.802;9.394;2023-07-24T09:03:31;9.97;;;7.63;;
6111;SDS011;3086;48.802;9.394;2023-07-24T09:06:53;10.30;;;6.90;;
6111;SDS011;3086;48.802;9.394;2023-07-24T09:10:18;10.97;;;8.23;;
6111;SDS011;3086;48.802;9.394;2023-07-24T09:13:45;9.10;;;7.90;;
6111;SDS011;3086;48.802;9.394;2023-07-24T09:17:07;9.83;;;7.33;;
6111;SDS011;3086;48.802;9.394;2023-07-24T09:20:37;11.53;;;7.67;;
6111;SDS011;3086;48.802;9.394;2023-07-24T09:24:08;10.13;;;7.10;;
6111;SDS011;3086;48.802;9.394;2023-07-24T09:27:31;10.83;;;7.20;;
6111;SDS011;3086;48.802;9.394;2023-07-24T09:30:53;7.60;;;6.83;;
6111;SDS011;3086;48.802;9.394;2023-07-24T09:34:16;6.97;;;6.03;;
6111;SDS011;3086;48.802;9.394;2023-07-24T09:37:39;9.57;;;6.27;;
6111;SDS011;3086;48.802;9.394;2023-07-24T09:41:01;7.93;;;5.97;;
6111;SDS011;3086;48.802;9.394;2023-07-24T09:44:24;9.47;;;5.93;;
6111;SDS011;3086;48.802;9.394;2023-07-24T09:47:47;6.60;;;5.60;;
6111;SDS011;3086;48.802;9.394;2023-07-24T09:51:09;6.73;;;6.03;;
6111;SDS011;3086;48.802;9.394;2023-07-24T09:54:35;7.63;;;5.77;;
6111;SDS011;3086;48.802;9.394;2023-07-24T09:58:01;8.53;;;6.13;;
6111;SDS011;3086;48.802;9.394;2023-07-24T10:01:22;7.10;;;5.57;;
6111;SDS011;3086;48.802;9.394;2023-07-24T10:04:44;7.47;;;6.73;;
6111;SDS011;3086;48.802;9.394;2023-07-24T10:08:06;7.87;;;6.23;;
6111;SDS011;3086;48.802;9.394;2023-07-24T10:11:29;6.60;;;5.63;;
6111;SDS011;3086;48.802;9.394;2023-07-24T10:14:51;9.53;;;6.80;;
6111;SDS011;3086;48.802;9.394;2023-07-24T10:18:14;7.83;;;6.13;;
6111;SDS011;3086;48.802;9.394;2023-07-24T10:21:36;7.10;;;6.20;;
6111;SDS011;3086;48.802;9.394;2023-07-24T10:24:58;10.00;;;6.53;;
6111;SDS011;3086;48.802;9.394;2023-07-24T10:28:30;6.67;;;5.73;;
6111;SDS011;3086;48.802;9.394;2023-07-24T10:31:53;8.50;;;6.03;;
6111;SDS011;3086;48.802;9.394;2023-07-24T10:35:15;9.33;;;6.97;;
6111;SDS011;3086;48.802;9.394;2023-07-24T10:38:39;8.53;;;6.07;;
6111;SDS011;3086;48.802;9.394;2023-07-24T10:42:04;7.70;;;6.00;;
6111;SDS011;3086;48.802;9.394;2023-07-24T10:45:37;8.13;;;6.63;;
6111;SDS011;3086;48.802;9.394;2023-07-24T10:49:02;7.93;;;7.03;;
6111;SDS011;3086;48.802;9.394;2023-07-24T10:52:27;10.57;;;6.63;;
6111;SDS011;3086;48.802;9.394;2023-07-24T10:55:49;7.83;;;6.27;;
6111;SDS011;3086;48.802;9.394;2023-07-24T10:59:11;7.17;;;6.40;;
6111;SDS011;3086;48.802;9.394;2023-07-24T11:02:36;10.33;;;6.60;;
6111;SDS011;3086;48.802;9.394;2023-07-24T11:05:57;11.07;;;7.20;;
6111;SDS011;3086;48.802;9.394;2023-07-24T11:09:19;8.53;;;6.37;;
6111;SDS011;3086;48.802;9.394;2023-07-24T11:12:41;9.13;;;6.70;;
6111;SDS011;3086;48.802;9.394;2023-07-24T11:16:06;7.83;;;6.83;;
6111;SDS011;3086;48.802;9.394;2023-07-24T11:19:30;8.30;;;6.90;;
6111;SDS011;3086;48.802;9.394;2023-07-24T11:22:51;7.67;;;6.80;;
6111;SDS011;3086;48.802;9.394;2023-07-24T11:26:13;9.63;;;6.43;;
6111;SDS011;3086;48.802;9.394;2023-07-24T11:29:35;10.07;;;6.37;;
6111;SDS011;3086;48.802;9.394;2023-07-24T11:32:57;9.53;;;6.20;;
6111;SDS011;3086;48.802;9.394;2023-07-24T11:36:20;7.03;;;6.30;;
6111;SDS011;3086;48.802;9.394;2023-07-24T11:39:43;8.93;;;7.00;;
6111;SDS011;3086;48.802;9.394;2023-07-24T11:43:04;9.90;;;6.50;;
6111;SDS011;3086;48.802;9.394;2023-07-24T11:46:26;9.43;;;6.83;;
6111;SDS011;3086;48.802;9.394;2023-07-24T11:49:58;9.17;;;6.30;;
6111;SDS011;3086;48.802;9.394;2023-07-24T11:53:22;8.17;;;6.63;;
6111;SDS011;3086;48.802;9.394;2023-07-24T11:56:44;7.07;;;6.37;;
6111;SDS011;3086;48.802;9.394;2023-07-24T12:00:06;9.00;;;6.37;;
6111;SDS011;3086;48.802;9.394;2023-07-24T12:03:39;10.33;;;6.77;;
6111;SDS011;3086;48.802;9.394;2023-07-24T12:07:05;6.70;;;5.93;;
6111;SDS011;3086;48.802;9.394;2023-07-24T12:10:30;7.93;;;6.40;;
6111;SDS011;3086;48.802;9.394;2023-07-24T12:13:51;7.07;;;6.00;;
6111;SDS011;3086;48.802;9.394;2023-07-24T12:17:17;7.23;;;5.83;;
6111;SDS011;3086;48.802;9.394;2023-07-24T12:20:39;8.17;;;7.07;;
6111;SDS011;3086;48.802;9.394;2023-07-24T12:24:01;8.90;;;6.90;;
6111;SDS011;3086;48.802;9.394;2023-07-24T12:27:24;7.83;;;7.03;;
6111;SDS011;3086;48.802;9.394;2023-07-24T12:30:46;10.40;;;7.53;;
6111;SDS011;3086;48.802;9.394;2023-07-24T12:34:09;7.83;;;6.90;;
6111;SDS011;3086;48.802;9.394;2023-07-24T12:37:30;8.93;;;6.73;;
6111;SDS011;3086;48.802;9.394;2023-07-24T12:40:52;9.00;;;6.77;;
6111;SDS011;3086;48.802;9.394;2023-07-24T12:44:15;7.47;;;6.37;;
6111;SDS011;3086;48.802;9.394;2023-07-24T12:47:36;9.00;;;6.57;;
6111;SDS011;3086;48.802;9.394;2023-07-24T12:50:58;14.30;;;5.87;;
6111;SDS011;3086;48.802;9.394;2023-07-24T12:54:21;8.17;;;6.40;;
6111;SDS011;3086;48.802;9.394;2023-07-24T12:57:43;8.13;;;6.30;;
6111;SDS011;3086;48.802;9.394;2023-07-24T13:01:06;7.40;;;5.97;;
6111;SDS011;3086;48.802;9.394;2023-07-24T13:04:28;8.70;;;5.90;;
6111;SDS011;3086;48.802;9.394;2023-07-24T13:07:49;6.53;;;5.90;;
6111;SDS011;3086;48.802;9.394;2023-07-24T13:11:11;7.07;;;6.30;;
6111;SDS011;3086;48.802;9.394;2023-07-24T13:14:32;9.27;;;6.03;;
6111;SDS011;3086;48.802;9.394;2023-07-24T13:17:55;7.47;;;6.53;;
6111;SDS011;3086;48.802;9.394;2023-07-24T13:21:17;8.17;;;7.13;;
6111;SDS011;3086;48.802;9.394;2023-07-24T13:24:38;7.17;;;6.17;;
6111;SDS011;3086;48.802;9.394;2023-07-24T13:28:00;6.60;;;5.90;;
6111;SDS011;3086;48.802;9.394;2023-07-24T13:31:21;6.57;;;5.73;;
6111;SDS011;3086;48.802;9.394;2023-07-24T13:34:44;8.13;;;5.97;;
6111;SDS011;3086;48.802;9.394;2023-07-24T13:38:07;6.80;;;6.13;;
6111;SDS011;3086;48.802;9.394;2023-07-24T13:41:29;8.70;;;6.10;;
6111;SDS011;3086;48.802;9.394;2023-07-24T13:44:50;7.70;;;5.73;;
6111;SDS011;3086;48.802;9.394;2023-07-24T13:48:12;7.10;;;5.77;;
6111;SDS011;3086;48.802;9.394;2023-07-24T13:51:35;6.33;;;5.50;;
6111;SDS011;3086;48.802;9.394;2023-07-24T13:54:56;7.47;;;5.43;;
6111;SDS011;3086;48.802;9.394;2023-07-24T13:58:18;6.43;;;5.83;;
6111;SDS011;3086;48.802;9.394;2023-07-24T14:01:39;7.57;;;5.20;;
6111;SDS011;3086;48.802;9.394;2023-07-24T14:05:01;5.80;;;5.30;;
6111;SDS011;3086;48.802;9.394;2023-07-24T14:08:23;6.30;;;5.37;;
6111;SDS011;3086;48.802;9.394;2023-07-24T14:11:45;6.10;;;5.50;;
6111;SDS011;3086;48.802;9.394;2023-07-24T14:15:07;7.83;;;4.70;;
6111;SDS011;3086;48.802;9.394;2023-07-24T14:18:29;5.47;;;4.97;;
6111;SDS011;3086;48.802;9.394;2023-07-24T14:21:51;5.47;;;4.67;;
6111;SDS011;3086;48.802;9.394;2023-07-24T14:25:14;5.50;;;4.83;;
6111;SDS011;3086;48.802;9.394;2023-07-24T14:28:35;4.60;;;4.20;;
6111;SDS011;3086;48.802;9.394;2023-07-24T14:31:57;4.97;;;4.43;;
6111;SDS011;3086;48.802;9.394;2023-07-24T14:35:19;5.07;;;4.57;;
6111;SDS011;3086;48.802;9.394;2023-07-24T14:38:40;5.10;;;4.53;;
6111;SDS011;3086;48.802;9.394;2023-07-24T14:42:03;6.30;;;4.40;;
6111;SDS011;3086;48.802;9.394;2023-07-24T14:45:26;5.00;;;4.50;;
6111;SDS011;3086;48.802;9.394;2023-07-24T14:48:47;8.70;;;4.80;;
6111;SDS011;3086;48.802;9.394;2023-07-24T14:52:10;4.90;;;4.37;;
6111;SDS011;3086;48.802;9.394;2023-07-24T14:55:31;5.40;;;4.33;;
6111;SDS011;3086;48.802;9.394;2023-07-24T14:58:54;4.80;;;4.20;;
6111;SDS011;3086;48.802;9.394;2023-07-24T15:02:16;5.77;;;4.20;;
6111;SDS011;3086;48.802;9.394;2023-07-24T15:05:37;4.80;;;3.80;;
6111;SDS011;3086;48.802;9.394;2023-07-24T15:08:59;4.57;;;3.87;;
6111;SDS011;3086;48.802;9.394;2023-07-24T15:12:20;5.40;;;3.50;;
6111;SDS011;3086;48.802;9.394;2023-07-24T15:15:43;4.13;;;3.73;;
6111;SDS011;3086;48.802;9.394;2023-07-24T15:19:05;5.47;;;4.00;;
6111;SDS011;3086;48.802;9.394;2023-07-24T15:22:26;3.70;;;3.40;;
6111;SDS011;3086;48.802;9.394;2023-07-24T15:25:48;4.00;;;3.60;;
6111;SDS011;3086;48.802;9.394;2023-07-24T15:29:10;4.17;;;3.77;;
6111;SDS011;3086;48.802;9.394;2023-07-24T15:32:32;4.30;;;3.80;;
6111;SDS011;3086;48.802;9.394;2023-07-24T15:35:54;6.80;;;4.00;;
6111;SDS011;3086;48.802;9.394;2023-07-24T15:39:16;4.03;;;2.97;;
6111;SDS011;3086;48.802;9.394;2023-07-24T15:42:37;5.20;;;3.57;;
6111;SDS011;3086;48.802;9.394;2023-07-24T15:45:59;5.27;;;3.50;;
6111;SDS011;3086;48.802;9.394;2023-07-24T15:49:22;4.50;;;3.67;;
6111;SDS011;3086;48.802;9.394;2023-07-24T15:52:43;5.53;;;3.90;;
6111;SDS011;3086;48.802;9.394;2023-07-24T15:56:05;5.07;;;3.73;;
6111;SDS011;3086;48.802;9.394;2023-07-24T15:59:27;6.50;;;4.20;;
6111;SDS011;3086;48.802;9.394;2023-07-24T16:02:48;6.67;;;4.07;;
6111;SDS011;3086;48.802;9.394;2023-07-24T16:06:11;4.80;;;3.97;;
6111;SDS011;3086;48.802;9.394;2023-07-24T16:09:33;4.90;;;4.30;;
6111;SDS011;3086;48.802;9.394;2023-07-24T16:12:54;5.20;;;3.83;;
6111;SDS011;3086;48.802;9.394;2023-07-24T16:16:16;4.50;;;4.10;;
6111;SDS011;3086;48.802;9.394;2023-07-24T16:19:37;4.20;;;3.80;;
6111;SDS011;3086;48.802;9.394;2023-07-24T16:23:00;5.07;;;3.90;;
6111;SDS011;3086;48.802;9.394;2023-07-24T16:26:22;6.93;;;4.27;;
6111;SDS011;3086;48.802;9.394;2023-07-24T16:29:43;4.70;;;3.90;;
6111;SDS011;3086;48.802;9.394;2023-07-24T16:33:05;4.83;;;3.90;;
6111;SDS011;3086;48.802;9.394;2023-07-24T16:36:26;4.23;;;3.83;;
6111;SDS011;3086;48.802;9.394;2023-07-24T16:39:51;5.67;;;4.47;;
6111;SDS011;3086;48.802;9.394;2023-07-24T16:43:13;5.27;;;4.10;;
6111;SDS011;3086;48.802;9.394;2023-07-24T16:46:35;4.40;;;4.00;;
6111;SDS011;3086;48.802;9.394;2023-07-24T16:49:57;4.87;;;3.80;;
6111;SDS011;3086;48.802;9.394;2023-07-24T16:53:20;4.67;;;4.10;;
6111;SDS011;3086;48.802;9.394;2023-07-24T16:56:43;7.40;;;4.00;;
6111;SDS011;3086;48.802;9.394;2023-07-24T17:00:05;4.40;;;3.93;;
6111;SDS011;3086;48.802;9.394;2023-07-24T17:03:27;7.67;;;4.33;;
6111;SDS011;3086;48.802;9.394;2023-07-24T17:06:49;4.63;;;4.13;;
6111;SDS011;3086;48.802;9.394;2023-07-24T17:10:10;5.17;;;4.67;;
6111;SDS011;3086;48.802;9.394;2023-07-24T17:13:34;4.40;;;4.00;;
6111;SDS011;3086;48.802;9.394;2023-07-24T17:16:56;3.93;;;3.53;;
6111;SDS011;3086;48.802;9.394;2023-07-24T17:20:19;5.93;;;3.93;;
6111;SDS011;3086;48.802;9.394;2023-07-24T17:23:40;6.23;;;3.43;;
6111;SDS011;3086;48.802;9.394;2023-07-24T17:27:02;3.13;;;2.83;;
6111;SDS011;3086;48.802;9.394;2023-07-24T17:30:25;3.37;;;2.90;;
6111;SDS011;3086;48.802;9.394;2023-07-24T17:33:47;2.97;;;2.67;;
6111;SDS011;3086;48.802;9.394;2023-07-24T17:37:08;3.33;;;3.03;;
6111;SDS011;3086;48.802;9.394;2023-07-24T17:40:30;4.27;;;2.97;;
6111;SDS011;3086;48.802;9.394;2023-07-24T17:43:53;4.70;;;3.23;;
6111;SDS011;3086;48.802;9.394;2023-07-24T17:47:16;5.40;;;3.30;;
6111;SDS011;3086;48.802;9.394;2023-07-24T17:50:38;4.93;;;3.77;;
6111;SDS011;3086;48.802;9.394;2023-07-24T17:53:59;4.13;;;3.67;;
6111;SDS011;3086;48.802;9.394;2023-07-24T17:57:21;7.33;;;3.60;;
6111;SDS011;3086;48.802;9.394;2023-07-24T18:00:42;8.87;;;4.37;;
6111;SDS011;3086;48.802;9.394;2023-07-24T18:04:07;6.47;;;3.60;;
6111;SDS011;3086;48.802;9.394;2023-07-24T18:07:29;4.57;;;3.53;;
6111;SDS011;3086;48.802;9.394;2023-07-24T18:10:50;3.23;;;2.93;;
6111;SDS011;3086;48.802;9.394;2023-07-24T18:14:12;3.83;;;3.17;;
6111;SDS011;3086;48.802;9.394;2023-07-24T18:17:34;2.80;;;2.50;;
6111;SDS011;3086;48.802;9.394;2023-07-24T18:20:56;3.40;;;2.83;;
6111;SDS011;3086;48.802;9.394;2023-07-24T18:24:18;2.80;;;2.50;;
6111;SDS011;3086;48.802;9.394;2023-07-24T18:27:40;3.03;;;2.40;;
6111;SDS011;3086;48.802;9.394;2023-07-24T18:31:02;3.40;;;2.30;;
6111;SDS011;3086;48.802;9.394;2023-07-24T18:34:23;2.83;;;2.47;;
6111;SDS011;3086;48.802;9.394;2023-07-24T18:37:46;3.17;;;2.50;;
6111;SDS011;3086;48.802;9.394;2023-07-24T18:41:08;3.23;;;2.27;;
6111;SDS011;3086;48.802;9.394;2023-07-24T18:44:29;2.80;;;2.20;;
6111;SDS011;3086;48.802;9.394;2023-07-24T18:47:51;2.17;;;2.00;;
6111;SDS011;3086;48.802;9.394;2023-07-24T18:51:12;2.27;;;2.07;;
6111;SDS011;3086;48.802;9.394;2023-07-24T18:54:35;3.23;;;2.47;;
6111;SDS011;3086;48.802;9.394;2023-07-24T18:57:56;2.80;;;2.23;;
6111;SDS011;3086;48.802;9.394;2023-07-24T19:01:18;2.00;;;1.90;;
6111;SDS011;3086;48.802;9.394;2023-07-24T19:04:41;2.63;;;2.17;;
6111;SDS011;3086;48.802;9.394;2023-07-24T19:08:02;2.80;;;2.27;;
6111;SDS011;3086;48.802;9.394;2023-07-24T19:11:26;3.80;;;2.47;;
6111;SDS011;3086;48.802;9.394;2023-07-24T19:14:47;2.87;;;2.17;;
6111;SDS011;3086;48.802;9.394;2023-07-24T19:18:09;2.47;;;2.27;;
6111;SDS011;3086;48.802;9.394;2023-07-24T19:21:30;4.10;;;2.50;;
6111;SDS011;3086;48.802;9.394;2023-07-24T19:24:52;2.37;;;2.17;;
6111;SDS011;3086;48.802;9.394;2023-07-24T19:28:15;2.97;;;2.40;;
6111;SDS011;3086;48.802;9.394;2023-07-24T19:31:37;2.63;;;2.40;;
6111;SDS011;3086;48.802;9.394;2023-07-24T19:34:58;2.53;;;2.33;;
6111;SDS011;3086;48.802;9.394;2023-07-24T19:38:20;2.20;;;2.00;;
6111;SDS011;3086;48.802;9.394;2023-07-24T19:41:41;2.80;;;2.60;;
6111;SDS011;3086;48.802;9.394;2023-07-24T19:45:05;3.23;;;2.00;;
6111;SDS011;3086;48.802;9.394;2023-07-24T19:48:27;2.83;;;2.43;;
6111;SDS011;3086;48.802;9.394;2023-07-24T19:51:48;2.50;;;2.30;;
6111;SDS011;3086;48.802;9.394;2023-07-24T19:55:10;3.93;;;2.67;;
6111;SDS011;3086;48.802;9.394;2023-07-24T19:58:32;3.87;;;2.50;;
6111;SDS011;3086;48.802;9.394;2023-07-24T20:01:56;4.43;;;2.53;;
6111;SDS011;3086;48.802;9.394;2023-07-24T20:05:18;2.93;;;2.50;;
6111;SDS011;3086;48.802;9.394;2023-07-24T20:08:40;3.90;;;2.67;;
6111;SDS011;3086;48.802;9.394;2023-07-24T20:12:02;2.33;;;2.20;;
6111;SDS011;3086;48.802;9.394;2023-07-24T20:15:24;3.67;;;2.50;;
6111;SDS011;3086;48.802;9.394;2023-07-24T20:18:47;3.10;;;2.80;;
6111;SDS011;3086;48.802;9.394;2023-07-24T20:22:08;2.67;;;2.40;;
6111;SDS011;3086;48.802;9.394;2023-07-24T20:25:30;2.87;;;2.53;;
6111;SDS011;3086;48.802;9.394;2023-07-24T20:28:51;3.37;;;2.27;;
6111;SDS011;3086;48.802;9.394;2023-07-24T20:32:13;3.20;;;2.40;;
6111;SDS011;3086;48.802;9.394;2023-07-24T20:39:27;2.73;;;2.50;;
6111;SDS011;3086;48.802;9.394;2023-07-24T20:42:49;2.97;;;2.57;;
6111;SDS011;3086;48.802;9.394;2023-07-24T20:46:10;2.73;;;2.47;;
6111;SDS011;3086;48.802;9.394;2023-07-24T20:49:33;2.17;;;1.97;;
6111;SDS011;3086;48.802;9.394;2023-07-24T20:52:56;2.50;;;2.23;;
6111;SDS011;3086;48.802;9.394;2023-07-24T20:56:18;3.63;;;2.57;;